createdAt,value
2018-09-20T00:01:57.296Z,85.40
2018-09-20T00:04:25.957Z,85.60
2018-09-20T00:06:54.673Z,85.60
2018-09-20T00:09:23.380Z,86.20
2018-09-20T00:11:52.061Z,86.40
2018-09-20T00:14:20.720Z,86.60
2018-09-20T00:16:49.493Z,86.90
2018-09-20T00:19:18.189Z,87.00
2018-09-20T00:21:46.923Z,87.10
2018-09-20T00:24:15.778Z,87.60
2018-09-20T00:26:44.556Z,87.80
2018-09-20T00:29:19.452Z,87.70
2018-09-20T00:31:48.126Z,87.30
2018-09-20T00:34:16.850Z,87.00
2018-09-20T00:36:45.533Z,86.90
2018-09-20T00:39:14.804Z,86.90
2018-09-20T00:41:43.725Z,86.80
2018-09-20T00:44:12.876Z,86.70
2018-09-20T00:46:41.624Z,86.80
2018-09-20T00:49:10.396Z,87.00
2018-09-20T00:51:39.032Z,87.10
2018-09-20T00:54:07.840Z,87.00
2018-09-20T00:56:36.552Z,86.80
2018-09-20T00:59:05.345Z,86.80
2018-09-20T01:01:34.047Z,87.00
2018-09-20T01:04:02.665Z,87.10
2018-09-20T01:06:31.468Z,87.20
2018-09-20T01:09:00.097Z,87.40
2018-09-20T01:11:28.773Z,87.70
2018-09-20T01:14:03.649Z,87.60
2018-09-20T01:16:32.382Z,87.20
2018-09-20T01:19:01.080Z,87.40
2018-09-20T01:21:29.730Z,87.60
2018-09-20T01:23:58.426Z,87.70
2018-09-20T01:26:27.037Z,87.30
2018-09-20T01:28:55.941Z,87.10
2018-09-20T01:31:24.701Z,87.20
2018-09-20T01:33:53.358Z,87.40
2018-09-20T01:36:22.121Z,87.40
2018-09-20T01:38:50.756Z,87.10
2018-09-20T01:41:19.418Z,87.10
2018-09-20T01:43:48.075Z,87.10
2018-09-20T01:46:16.690Z,87.30
2018-09-20T01:48:45.401Z,87.70
2018-09-20T01:51:14.021Z,87.60
2018-09-20T01:53:42.619Z,87.70
2018-09-20T01:56:15.707Z,88.00
2018-09-20T01:58:45.676Z,88.00
2018-09-20T02:01:14.330Z,88.00
2018-09-20T02:03:42.974Z,87.90
2018-09-20T02:06:11.611Z,87.90
2018-09-20T02:08:40.213Z,87.90
2018-09-20T02:11:43.050Z,87.90
2018-09-20T02:14:11.477Z,88.20
2018-09-20T02:16:39.869Z,88.20
2018-09-20T02:19:08.314Z,88.40
2018-09-20T02:21:36.920Z,88.80
2018-09-20T02:24:05.574Z,89.10
2018-09-20T02:26:34.235Z,89.10
2018-09-20T02:29:02.870Z,89.60
2018-09-20T02:31:31.559Z,89.70
2018-09-20T02:34:00.406Z,89.90
2018-09-20T02:36:29.006Z,90.10
2018-09-20T02:38:57.731Z,90.10
2018-09-20T02:41:26.550Z,90.20
2018-09-20T02:43:55.251Z,90.20
2018-09-20T02:46:23.941Z,90.20
2018-09-20T02:48:52.612Z,90.20
2018-09-20T02:51:21.916Z,90.10
2018-09-20T02:53:50.869Z,90.10
2018-09-20T02:56:19.876Z,90.10
2018-09-20T02:58:48.572Z,90.00
2018-09-20T03:01:17.205Z,90.00
2018-09-20T03:03:45.863Z,90.00
2018-09-20T03:06:14.509Z,89.90
2018-09-20T03:08:43.216Z,90.00
2018-09-20T03:11:11.875Z,89.90
2018-09-20T03:13:40.530Z,90.10
2018-09-20T03:16:09.236Z,90.10
2018-09-20T03:18:37.939Z,90.30
2018-09-20T03:21:06.601Z,90.50
2018-09-20T03:23:35.265Z,90.70
2018-09-20T03:26:03.935Z,90.70
2018-09-20T03:28:32.614Z,90.60
2018-09-20T03:31:01.374Z,90.30
2018-09-20T03:33:30.089Z,90.30
2018-09-20T03:35:58.782Z,90.10
2018-09-20T03:38:27.412Z,90.10
2018-09-20T03:40:56.133Z,90.30
2018-09-20T03:43:24.760Z,90.30
2018-09-20T03:45:53.477Z,90.50
2018-09-20T03:48:22.101Z,90.90
2018-09-20T03:50:50.753Z,90.80
2018-09-20T03:53:19.439Z,90.50
2018-09-20T03:55:48.138Z,90.60
2018-09-20T03:58:16.810Z,90.90
2018-09-20T04:00:45.430Z,90.50
2018-09-20T04:03:14.219Z,90.40
2018-09-20T04:05:42.958Z,90.50
2018-09-20T04:08:11.661Z,90.90
2018-09-20T04:10:40.406Z,91.10
2018-09-20T04:13:09.207Z,91.20
2018-09-20T04:15:37.962Z,91.10
2018-09-20T04:18:06.613Z,91.10
2018-09-20T04:20:35.378Z,91.30
2018-09-20T04:23:04.117Z,91.40
2018-09-20T04:25:32.847Z,91.40
2018-09-20T04:28:01.517Z,91.40
2018-09-20T04:30:30.223Z,91.40
2018-09-20T04:32:58.917Z,91.30
2018-09-20T04:35:27.651Z,91.30
2018-09-20T04:37:56.382Z,91.60
2018-09-20T04:40:25.121Z,91.30
2018-09-20T04:42:53.754Z,91.20
2018-09-20T04:45:22.429Z,91.10
2018-09-20T04:47:51.137Z,91.20
2018-09-20T04:50:19.704Z,91.40
2018-09-20T04:52:48.373Z,91.80
2018-09-20T04:55:17.053Z,92.10
2018-09-20T04:57:45.739Z,92.30
2018-09-20T05:00:14.445Z,92.30
2018-09-20T05:02:43.204Z,92.40
2018-09-20T05:05:11.818Z,92.20
2018-09-20T05:07:41.648Z,92.20
2018-09-20T05:10:10.316Z,92.20
2018-09-20T05:12:39.002Z,92.40
2018-09-20T05:15:07.764Z,92.40
2018-09-20T05:17:36.537Z,92.30
2018-09-20T05:20:05.239Z,92.20
2018-09-20T05:22:33.913Z,92.30
2018-09-20T05:25:02.598Z,92.50
2018-09-20T05:27:31.235Z,92.50
2018-09-20T05:29:59.849Z,92.50
2018-09-20T05:32:28.556Z,92.30
2018-09-20T05:34:57.254Z,92.20
2018-09-20T05:37:25.908Z,91.80
2018-09-20T05:39:54.518Z,91.70
2018-09-20T05:42:23.136Z,91.50
2018-09-20T05:44:52.029Z,91.20
2018-09-20T05:47:20.702Z,90.70
2018-09-20T05:49:49.375Z,90.50
2018-09-20T05:52:17.977Z,90.50
2018-09-20T05:54:46.634Z,90.50
2018-09-20T05:57:15.313Z,90.70
2018-09-20T05:59:43.996Z,91.00
2018-09-20T06:02:12.640Z,91.00
2018-09-20T06:04:41.346Z,91.00
2018-09-20T06:07:10.012Z,90.70
2018-09-20T06:09:38.770Z,90.60
2018-09-20T06:12:07.450Z,90.50
2018-09-20T06:14:36.077Z,90.10
2018-09-20T06:17:04.928Z,90.10
2018-09-20T06:19:33.590Z,90.00
2018-09-20T06:22:02.230Z,89.80
2018-09-20T06:24:30.941Z,89.70
2018-09-20T06:27:00.426Z,89.60
2018-09-20T06:29:29.026Z,89.50
2018-09-20T06:31:57.701Z,89.30
2018-09-20T06:34:27.427Z,88.90
2018-09-20T06:36:56.627Z,88.60
2018-09-20T06:39:25.364Z,88.30
2018-09-20T06:41:53.976Z,88.10
2018-09-20T06:44:22.685Z,87.70
2018-09-20T06:46:51.419Z,87.40
2018-09-20T06:49:20.161Z,87.40
2018-09-20T06:51:48.838Z,87.20
2018-09-20T06:54:17.514Z,87.10
2018-09-20T06:56:46.250Z,86.80
2018-09-20T06:59:14.958Z,86.50
2018-09-20T07:01:43.642Z,86.40
2018-09-20T07:04:12.357Z,86.50
2018-09-20T07:06:41.023Z,86.30
2018-09-20T07:09:11.790Z,85.90
2018-09-20T07:11:40.751Z,86.00
2018-09-20T07:14:09.467Z,86.20
2018-09-20T07:16:38.175Z,85.40
2018-09-20T07:19:06.935Z,84.80
2018-09-20T07:21:35.658Z,84.60
2018-09-20T07:24:04.410Z,84.40
2018-09-20T07:26:33.030Z,84.90
2018-09-20T07:29:04.389Z,85.00
2018-09-20T07:31:33.086Z,83.80
2018-09-20T07:34:01.736Z,83.20
2018-09-20T07:36:31.110Z,83.10
2018-09-20T07:38:59.780Z,82.20
2018-09-20T07:41:28.366Z,81.10
2018-09-20T07:43:56.975Z,79.10
2018-09-20T07:46:25.620Z,79.10
2018-09-20T07:48:54.361Z,79.40
2018-09-20T07:51:22.970Z,78.80
2018-09-20T07:53:51.709Z,78.90
2018-09-20T07:56:20.420Z,78.40
2018-09-20T07:58:49.124Z,78.30
2018-09-20T08:01:17.688Z,78.20
2018-09-20T08:03:46.411Z,77.80
2018-09-20T08:06:15.169Z,76.20
2018-09-20T08:08:43.809Z,76.30
2018-09-20T08:11:12.507Z,72.90
2018-09-20T08:13:41.153Z,72.30
2018-09-20T08:16:09.847Z,72.60
2018-09-20T08:18:38.546Z,72.70
2018-09-20T08:21:07.652Z,72.20
2018-09-20T08:23:36.298Z,71.40
2018-09-20T08:26:04.994Z,70.70
2018-09-20T08:28:33.670Z,71.20
2018-09-20T08:31:02.462Z,70.30
2018-09-20T08:33:31.054Z,69.40
2018-09-20T08:35:59.700Z,68.90
2018-09-20T08:38:28.446Z,68.00
2018-09-20T08:40:57.214Z,67.20
2018-09-20T08:43:25.923Z,67.60
2018-09-20T08:45:54.648Z,67.10
2018-09-20T08:48:23.298Z,67.60
2018-09-20T08:50:52.000Z,67.00
2018-09-20T08:53:20.751Z,66.20
2018-09-20T08:55:49.406Z,66.30
2018-09-20T08:58:18.108Z,65.50
2018-09-20T09:00:46.818Z,65.50
2018-09-20T09:03:15.429Z,64.30
2018-09-20T09:05:44.159Z,62.90
2018-09-20T09:08:12.777Z,62.90
2018-09-20T09:10:41.530Z,62.70
2018-09-20T09:13:10.385Z,62.10
2018-09-20T09:15:39.090Z,61.60
2018-09-20T09:18:07.855Z,62.30
2018-09-20T09:20:36.462Z,62.70
2018-09-20T09:23:05.154Z,62.10
2018-09-20T09:25:33.831Z,61.70
2018-09-20T09:28:02.502Z,61.90
2018-09-20T09:30:31.157Z,62.10
2018-09-20T09:32:59.846Z,62.20
2018-09-20T09:35:28.611Z,62.70
2018-09-20T09:37:57.227Z,62.40
2018-09-20T09:40:26.493Z,62.50
2018-09-20T09:42:55.221Z,62.50
2018-09-20T09:45:23.883Z,62.10
2018-09-20T09:47:52.499Z,61.60
2018-09-20T09:50:21.111Z,61.90
2018-09-20T09:52:49.779Z,61.60
2018-09-20T09:55:18.475Z,61.30
2018-09-20T09:57:55.274Z,61.70
2018-09-20T10:00:29.406Z,61.90
2018-09-20T10:02:59.282Z,62.20
2018-09-20T10:05:28.302Z,62.90
2018-09-20T10:07:58.516Z,62.50
2018-09-20T10:10:27.107Z,62.30
2018-09-20T10:12:55.805Z,62.20
2018-09-20T10:15:24.497Z,61.90
2018-09-20T10:17:53.082Z,62.20
2018-09-20T10:20:21.828Z,63.10
2018-09-20T10:22:51.821Z,62.30
2018-09-20T10:25:20.969Z,61.90
2018-09-20T10:27:49.572Z,61.50
2018-09-20T10:30:18.536Z,60.80
2018-09-20T10:32:47.873Z,61.20
2018-09-20T10:35:16.825Z,60.10
2018-09-20T10:37:45.481Z,59.80
2018-09-20T10:40:31.289Z,59.70
2018-09-20T10:43:01.397Z,59.40
2018-09-20T10:45:30.733Z,59.20
2018-09-20T10:48:05.442Z,59.40
2018-09-20T10:50:34.378Z,59.60
2018-09-20T10:53:03.383Z,59.90
2018-09-20T10:55:32.337Z,59.60
2018-09-20T10:58:01.714Z,59.70
2018-09-20T11:00:30.606Z,58.90
2018-09-20T11:02:59.650Z,59.00
2018-09-20T11:05:28.253Z,58.70
2018-09-20T11:07:57.067Z,58.60
2018-09-20T11:10:25.826Z,58.50
2018-09-20T11:12:54.405Z,58.70
2018-09-20T11:15:23.311Z,58.70
2018-09-20T11:17:51.998Z,58.70
2018-09-20T11:20:20.645Z,59.20
2018-09-20T11:22:49.307Z,58.10
2018-09-20T11:25:18.016Z,57.50
2018-09-20T11:27:46.937Z,57.00
2018-09-20T11:30:15.636Z,57.00
2018-09-20T11:32:44.280Z,57.00
2018-09-20T11:35:13.614Z,57.20
2018-09-20T11:37:42.481Z,56.70
2018-09-20T11:40:12.056Z,57.00
2018-09-20T11:42:40.867Z,57.20
2018-09-20T11:45:09.573Z,56.30
2018-09-20T11:47:38.157Z,55.40
2018-09-20T11:50:09.964Z,55.20
2018-09-20T11:52:40.209Z,55.70
2018-09-20T11:55:08.947Z,55.80
2018-09-20T11:57:38.554Z,54.50
2018-09-20T12:00:07.855Z,54.50
2018-09-20T12:02:37.157Z,54.40
2018-09-20T12:05:06.241Z,53.80
2018-09-20T12:07:36.206Z,53.90
2018-09-20T12:10:05.941Z,53.80
2018-09-20T12:12:34.593Z,53.80
2018-09-20T12:15:03.528Z,53.70
2018-09-20T12:17:32.627Z,53.70
2018-09-20T12:20:01.894Z,53.30
2018-09-20T12:22:31.017Z,52.70
2018-09-20T12:25:01.250Z,53.40
2018-09-20T12:27:32.112Z,52.40
2018-09-20T12:30:00.818Z,52.20
2018-09-20T12:32:30.284Z,52.10
2018-09-20T12:34:59.000Z,52.20
2018-09-20T12:37:33.154Z,52.10
2018-09-20T12:40:02.584Z,51.70
2018-09-20T12:42:31.565Z,50.70
2018-09-20T12:45:02.439Z,50.30
2018-09-20T12:47:32.844Z,49.20
2018-09-20T12:50:02.405Z,49.70
2018-09-20T12:52:31.692Z,49.50
2018-09-20T12:55:00.702Z,49.50
2018-09-20T12:57:29.409Z,49.20
2018-09-20T12:59:59.933Z,49.40
2018-09-20T13:02:29.848Z,49.60
2018-09-20T13:04:59.146Z,49.10
2018-09-20T13:07:27.761Z,49.40
2018-09-20T13:09:56.632Z,49.10
2018-09-20T13:12:26.651Z,48.40
2018-09-20T13:14:55.605Z,48.30
2018-09-20T13:17:24.716Z,48.40
2018-09-20T13:19:54.214Z,48.30
2018-09-20T13:22:23.469Z,48.50
2018-09-20T13:24:52.092Z,47.90
2018-09-20T13:27:20.839Z,47.70
2018-09-20T13:29:50.105Z,48.00
2018-09-20T13:32:18.780Z,47.80
2018-09-20T13:34:47.712Z,46.50
2018-09-20T13:37:17.023Z,46.40
2018-09-20T13:39:45.697Z,46.40
2018-09-20T13:42:16.223Z,46.80
2018-09-20T13:44:45.564Z,46.70
2018-09-20T13:47:15.196Z,46.90
2018-09-20T13:49:45.308Z,47.40
2018-09-20T13:52:14.657Z,46.90
2018-09-20T13:54:43.518Z,46.60
2018-09-20T13:57:12.492Z,47.30
2018-09-20T13:59:41.729Z,47.00
2018-09-20T14:02:16.807Z,46.20
2018-09-20T14:04:45.597Z,46.40
2018-09-20T14:07:14.261Z,45.30
2018-09-20T14:09:43.069Z,46.10
2018-09-20T14:12:11.754Z,46.10
2018-09-20T14:14:40.474Z,45.30
2018-09-20T14:17:09.155Z,45.50
2018-09-20T14:19:37.839Z,45.20
2018-09-20T14:22:06.624Z,44.90
2018-09-20T14:24:36.239Z,44.40
2018-09-20T14:27:05.090Z,44.20
2018-09-20T14:29:33.791Z,45.20
2018-09-20T14:32:02.452Z,45.60
2018-09-20T14:34:36.882Z,45.20
2018-09-20T14:37:06.364Z,46.10
2018-09-20T14:39:43.005Z,46.40
2018-09-20T14:42:12.058Z,45.90
2018-09-20T14:44:40.755Z,46.00
2018-09-20T14:47:09.724Z,45.70
2018-09-20T14:49:41.159Z,46.50
2018-09-20T14:52:10.001Z,46.40
2018-09-20T14:54:39.033Z,46.10
2018-09-20T14:57:07.869Z,46.00
2018-09-20T14:59:36.646Z,46.40
2018-09-20T15:02:05.433Z,45.70
2018-09-20T15:04:34.117Z,45.60
2018-09-20T15:07:02.877Z,45.50
2018-09-20T15:09:31.482Z,45.30
2018-09-20T15:12:00.283Z,45.70
2018-09-20T15:14:29.897Z,46.10
2018-09-20T15:16:58.656Z,45.60
2018-09-20T15:19:27.687Z,45.00
2018-09-20T15:21:58.371Z,44.30
2018-09-20T15:24:27.313Z,45.00
2018-09-20T15:27:04.999Z,44.60
2018-09-20T15:29:35.194Z,44.60
2018-09-20T15:32:03.848Z,45.40
2018-09-20T15:34:32.503Z,45.80
2018-09-20T15:37:01.889Z,45.20
2018-09-20T15:39:31.585Z,44.30
2018-09-20T15:42:00.785Z,44.40
2018-09-20T15:44:30.800Z,44.00
2018-09-20T15:47:00.795Z,43.50
2018-09-20T15:49:29.568Z,42.30
2018-09-20T15:51:58.487Z,43.20
2018-09-20T15:54:28.051Z,42.90
2018-09-20T15:57:01.863Z,42.90
2018-09-20T15:59:30.617Z,44.00
2018-09-20T16:01:59.277Z,43.60
2018-09-20T16:04:28.263Z,43.50
2018-09-20T16:06:56.901Z,42.40
2018-09-20T16:09:25.894Z,42.20
2018-09-20T16:11:56.735Z,42.50
2018-09-20T16:14:25.913Z,42.80
2018-09-20T16:16:54.703Z,43.50
2018-09-20T16:19:24.530Z,44.30
2018-09-20T16:21:53.291Z,44.00
2018-09-20T16:24:22.016Z,44.50
2018-09-20T16:26:50.914Z,44.70
2018-09-20T16:29:33.920Z,45.70
2018-09-20T16:35:17.125Z,47.00
2018-09-20T16:38:01.254Z,48.40
2018-09-20T16:40:32.779Z,50.30
2018-09-20T16:43:07.843Z,50.60
2018-09-20T16:45:37.181Z,50.10
2018-09-20T16:48:06.061Z,49.60
2018-09-20T16:50:34.749Z,48.60
2018-09-20T16:53:04.203Z,49.20
2018-09-20T16:55:33.243Z,50.10
2018-09-20T16:58:01.970Z,50.50
2018-09-20T17:00:30.610Z,50.90
2018-09-20T17:02:59.289Z,51.30
2018-09-20T17:05:28.019Z,51.90
2018-09-20T17:07:56.762Z,52.70
2018-09-20T17:10:25.792Z,53.40
2018-09-20T17:12:54.463Z,54.50
2018-09-20T17:15:23.393Z,55.40
2018-09-20T17:17:52.343Z,55.70
2018-09-20T17:20:21.079Z,56.00
2018-09-20T17:22:49.987Z,56.30
2018-09-20T17:25:19.109Z,56.60
2018-09-20T17:27:47.723Z,56.80
2018-09-20T17:30:16.457Z,56.90
2018-09-20T17:32:45.076Z,58.00
2018-09-20T17:35:14.899Z,58.80
2018-09-20T17:37:45.486Z,59.30
2018-09-20T17:40:15.437Z,59.80
2018-09-20T17:42:45.690Z,60.50
2018-09-20T17:45:14.512Z,60.50
2018-09-20T17:47:43.323Z,60.60
2018-09-20T17:50:12.137Z,60.30
2018-09-20T17:52:41.267Z,60.80
2018-09-20T17:55:10.598Z,61.30
2018-09-20T17:57:40.461Z,61.70
2018-09-20T18:00:09.300Z,62.60
2018-09-20T18:02:37.966Z,63.40
2018-09-20T18:05:06.665Z,63.70
2018-09-20T18:07:35.333Z,63.80
2018-09-20T18:10:04.467Z,64.10
2018-09-20T18:12:33.335Z,64.10
2018-09-20T18:15:02.096Z,64.30
2018-09-20T18:17:30.622Z,64.20
2018-09-20T18:19:59.491Z,64.60
2018-09-20T18:22:28.147Z,64.80
2018-09-20T18:24:58.194Z,64.80
2018-09-20T18:27:27.109Z,64.90
2018-09-20T18:29:56.019Z,65.20
2018-09-20T18:32:24.943Z,65.50
2018-09-20T18:34:53.583Z,65.80
2018-09-20T18:37:25.296Z,66.20
2018-09-20T18:39:55.528Z,66.70
2018-09-20T18:42:24.287Z,66.90
2018-09-20T18:44:53.399Z,67.30
2018-09-20T18:47:22.803Z,67.70
2018-09-20T18:49:51.866Z,67.90
2018-09-20T18:52:21.887Z,68.40
2018-09-20T18:54:52.835Z,68.90
2018-09-20T18:57:21.628Z,69.20
2018-09-20T18:59:51.464Z,69.50
2018-09-20T19:02:20.395Z,69.80
2018-09-20T19:04:50.694Z,70.20
2018-09-20T19:07:19.464Z,70.60
2018-09-20T19:09:48.681Z,70.70
2018-09-20T19:12:18.409Z,70.80
2018-09-20T19:14:47.903Z,70.90
2018-09-20T19:17:16.634Z,71.10
2018-09-20T19:19:47.085Z,71.20
2018-09-20T19:22:16.734Z,71.40
2018-09-20T19:24:46.282Z,71.60
2018-09-20T19:27:15.716Z,72.20
2018-09-20T19:29:46.685Z,72.00
2018-09-20T19:32:15.987Z,72.30
2018-09-20T19:34:46.087Z,72.40
2018-09-20T19:37:15.871Z,72.60
2018-09-20T19:39:44.898Z,72.70
2018-09-20T19:42:14.136Z,72.80
2018-09-20T19:44:45.024Z,73.10
2018-09-20T19:47:14.062Z,73.50
2018-09-20T19:49:43.370Z,73.50
2018-09-20T19:52:12.314Z,73.80
2018-09-20T19:54:42.133Z,74.00
2018-09-20T19:57:11.499Z,74.20
2018-09-20T19:59:40.783Z,74.20
2018-09-20T20:02:11.336Z,74.40
2018-09-20T20:04:40.792Z,74.60
2018-09-20T20:07:09.899Z,74.90
2018-09-20T20:09:39.089Z,75.00
2018-09-20T20:12:07.923Z,75.10
2018-09-20T20:14:36.661Z,75.10
2018-09-20T20:17:05.647Z,75.10
2018-09-20T20:19:34.584Z,75.10
2018-09-20T20:22:03.199Z,75.20
2018-09-20T20:24:32.189Z,75.20
2018-09-20T20:27:01.659Z,75.40
2018-09-20T20:29:30.921Z,75.70
2018-09-20T20:32:00.579Z,75.70
2018-09-20T20:34:31.241Z,76.00
2018-09-20T20:37:00.253Z,76.00
2018-09-20T20:39:29.320Z,76.20
2018-09-20T20:41:58.357Z,76.30
2018-09-20T20:44:28.814Z,76.40
2018-09-20T20:46:57.573Z,76.50
2018-09-20T20:49:28.097Z,77.20
2018-09-20T20:51:57.747Z,77.10
2018-09-20T20:54:26.527Z,77.20
2018-09-20T20:56:55.485Z,77.40
2018-09-20T20:59:24.229Z,77.60
2018-09-20T21:01:53.091Z,77.90
2018-09-20T21:04:21.996Z,78.10
2018-09-20T21:06:50.975Z,78.30
2018-09-20T21:09:19.669Z,78.40
2018-09-20T21:11:48.724Z,78.50
2018-09-20T21:14:17.476Z,78.60
2018-09-20T21:16:46.420Z,78.80
2018-09-20T21:19:15.321Z,78.80
2018-09-20T21:21:43.989Z,79.20
2018-09-20T21:24:12.915Z,78.90
2018-09-20T21:26:41.533Z,79.10
2018-09-20T21:29:10.195Z,79.10
2018-09-20T21:31:38.977Z,79.30
2018-09-20T21:34:07.625Z,79.50
2018-09-20T21:36:36.297Z,79.50
2018-09-20T21:39:08.397Z,79.70
2018-09-20T21:41:37.091Z,79.70
2018-09-20T21:44:05.810Z,79.70
2018-09-20T21:46:34.441Z,79.90
2018-09-20T21:49:03.034Z,80.00
2018-09-20T21:51:31.853Z,80.20
2018-09-20T21:54:00.860Z,80.20
2018-09-20T21:56:29.946Z,80.20
2018-09-20T21:58:58.547Z,80.20
2018-09-20T22:01:27.214Z,80.50
2018-09-20T22:03:55.885Z,80.60
2018-09-20T22:06:24.595Z,80.60
2018-09-20T22:08:53.618Z,80.80
2018-09-20T22:11:22.282Z,81.00
2018-09-20T22:13:51.282Z,81.10
2018-09-20T22:16:20.071Z,81.10
2018-09-20T22:18:48.680Z,81.20
2018-09-20T22:21:17.448Z,81.20
2018-09-20T22:23:46.095Z,81.30
2018-09-20T22:26:14.725Z,81.10
2018-09-20T22:28:43.593Z,81.70
2018-09-20T22:31:12.573Z,81.70
2018-09-20T22:33:41.235Z,82.10
2018-09-20T22:36:09.934Z,82.00
2018-09-20T22:38:38.890Z,82.00
2018-09-20T22:41:07.612Z,82.30
2018-09-20T22:43:36.289Z,82.40
2018-09-20T22:46:04.942Z,82.30
2018-09-20T22:48:33.567Z,82.60
2018-09-20T22:51:02.222Z,82.50
2018-09-20T22:53:30.969Z,82.30
2018-09-20T22:55:59.685Z,82.50
2018-09-20T22:58:28.955Z,82.30
2018-09-20T23:00:58.290Z,82.30
2018-09-20T23:03:27.179Z,82.20
2018-09-20T23:05:55.996Z,82.30
2018-09-20T23:08:24.603Z,82.00
2018-09-20T23:10:53.385Z,82.00
2018-09-20T23:13:22.279Z,81.90
2018-09-20T23:15:50.946Z,81.60
2018-09-20T23:18:19.657Z,81.50
2018-09-20T23:20:48.402Z,81.40
2018-09-20T23:23:16.999Z,81.40
2018-09-20T23:25:45.661Z,81.20
2018-09-20T23:28:14.311Z,80.90
2018-09-20T23:30:43.121Z,80.90
2018-09-20T23:33:11.745Z,81.10
2018-09-20T23:35:40.677Z,81.40
2018-09-20T23:38:09.390Z,81.70
2018-09-20T23:40:38.453Z,81.70
2018-09-20T23:43:07.069Z,82.10
2018-09-20T23:45:35.649Z,81.90
2018-09-20T23:48:04.352Z,81.70
2018-09-20T23:50:33.395Z,82.00
2018-09-20T23:53:02.134Z,82.10
2018-09-20T23:55:30.730Z,82.10
2018-09-20T23:57:59.649Z,82.00
